Terminal Aerodrome Forecast
Issued by NWS Charleston, SC

Current Version | Previous Version | Text Only | Print | Product List | Glossary Off
Versions: 1 2 3 4 5 6 7 8 9 10 11 12

510
FTUS42 KCHS 231735
TAFCHS
TAF
KCHS 231735Z 2318/2418 21012G17KT P6SM SCT040
     FM240100 23009KT P6SM SCT035 BKN250=

USA.gov is the U.S. government's official web portal to all federal, state and local government web resources and services.